createdAt,value
2022-12-08T00:00:08.960Z,8.70
2022-12-08T00:02:35.804Z,7.97
2022-12-08T00:05:21.177Z,9.40
2022-12-08T00:08:06.854Z,8.52
2022-12-08T00:10:49.030Z,7.90
2022-12-08T00:13:16.159Z,8.15
2022-12-08T00:15:42.973Z,7.95
2022-12-08T00:18:12.342Z,7.53
2022-12-08T00:20:38.960Z,6.97
2022-12-08T00:23:05.741Z,7.43
2022-12-08T00:25:36.049Z,8.13
2022-12-08T00:28:03.110Z,8.30
2022-12-08T00:30:29.691Z,6.68
2022-12-08T00:37:05.648Z,7.60
2022-12-08T00:39:32.637Z,7.30
2022-12-08T00:42:14.463Z,8.18
2022-12-08T00:44:43.279Z,9.38
2022-12-08T00:47:10.913Z,7.57
2022-12-08T00:49:38.021Z,7.93
2022-12-08T00:52:05.132Z,7.90
2022-12-08T00:54:32.053Z,6.85
2022-12-08T00:56:58.718Z,7.13
2022-12-08T00:59:25.331Z,7.35
2022-12-08T01:01:51.996Z,7.47
2022-12-08T01:04:20.474Z,6.82
2022-12-08T01:06:47.867Z,6.97
2022-12-08T01:09:16.066Z,6.32
2022-12-08T01:11:44.657Z,7.70
2022-12-08T01:14:12.587Z,6.72
2022-12-08T01:16:41.760Z,8.02
2022-12-08T01:19:11.118Z,7.40
2022-12-08T01:21:37.796Z,7.40
2022-12-08T01:24:04.986Z,7.97
2022-12-08T01:26:31.928Z,9.75
2022-12-08T01:28:59.616Z,8.93
2022-12-08T01:31:26.469Z,8.95
2022-12-08T01:33:54.438Z,8.82
2022-12-08T01:36:24.828Z,9.63
2022-12-08T01:38:53.206Z,7.18
2022-12-08T01:41:23.644Z,9.20
2022-12-08T01:44:09.163Z,8.38
2022-12-08T01:46:38.349Z,8.00
2022-12-08T01:49:22.818Z,8.27
2022-12-08T01:52:16.863Z,8.97
2022-12-08T01:54:53.439Z,7.30
2022-12-08T01:57:50.516Z,8.95
2022-12-08T02:00:20.440Z,7.78
2022-12-08T02:02:52.346Z,7.72
2022-12-08T02:05:22.325Z,8.07
2022-12-08T02:07:49.857Z,8.57
2022-12-08T02:10:22.493Z,9.10
2022-12-08T02:12:52.450Z,7.60
2022-12-08T02:15:20.341Z,10.13
2022-12-08T02:18:13.232Z,9.18
2022-12-08T02:21:14.147Z,10.48
2022-12-08T02:24:10.233Z,8.90
2022-12-08T02:26:48.883Z,9.32
2022-12-08T02:29:24.646Z,9.98
2022-12-08T02:32:09.194Z,8.82
2022-12-08T02:34:49.845Z,9.02
2022-12-08T02:37:32.827Z,8.07
2022-12-08T02:40:20.515Z,9.50
2022-12-08T02:43:22.927Z,9.00
2022-12-08T02:45:56.097Z,8.75
2022-12-08T02:48:22.816Z,8.48
2022-12-08T02:50:49.628Z,9.75
2022-12-08T02:56:12.966Z,9.45
2022-12-08T02:59:10.414Z,9.27
2022-12-08T03:02:02.248Z,9.10
2022-12-08T03:04:47.626Z,10.38
2022-12-08T03:10:12.184Z,9.20
2022-12-08T03:13:16.191Z,8.73
2022-12-08T03:15:45.448Z,8.75
2022-12-08T03:18:16.138Z,10.13
2022-12-08T03:20:46.247Z,9.27
2022-12-08T03:23:15.865Z,10.50
2022-12-08T03:26:09.121Z,10.75
2022-12-08T03:28:36.227Z,9.98
2022-12-08T03:31:07.643Z,8.88
2022-12-08T03:33:40.546Z,9.18
2022-12-08T03:36:09.548Z,9.40
2022-12-08T03:38:41.857Z,9.38
2022-12-08T03:41:34.835Z,10.05
2022-12-08T03:44:01.739Z,9.38
2022-12-08T03:48:56.551Z,10.00
2022-12-08T03:51:23.998Z,9.88
2022-12-08T03:53:51.252Z,10.98
2022-12-08T03:56:44.246Z,10.90
2022-12-08T03:59:11.413Z,9.23
2022-12-08T04:01:38.368Z,10.63
2022-12-08T04:04:05.211Z,9.63
2022-12-08T04:06:31.859Z,10.52
2022-12-08T04:08:58.975Z,10.18
2022-12-08T04:11:26.027Z,9.52
2022-12-08T04:13:52.980Z,10.20
2022-12-08T04:16:23.031Z,11.10
2022-12-08T04:18:50.341Z,10.00
2022-12-08T04:21:17.212Z,10.88
2022-12-08T04:23:44.034Z,10.18
2022-12-08T04:26:12.934Z,10.60
2022-12-08T04:28:39.684Z,10.35
2022-12-08T04:31:06.703Z,10.32
2022-12-08T04:33:35.287Z,10.55
2022-12-08T04:36:03.677Z,9.60
2022-12-08T04:38:30.555Z,11.20
2022-12-08T04:40:57.464Z,10.27
2022-12-08T04:43:27.250Z,11.48
2022-12-08T04:45:54.193Z,10.68
2022-12-08T04:48:21.314Z,9.85
2022-12-08T04:50:48.052Z,10.82
2022-12-08T04:53:15.189Z,9.90
2022-12-08T04:55:44.858Z,9.57
2022-12-08T04:58:15.950Z,11.40
2022-12-08T05:00:42.619Z,11.93
2022-12-08T05:03:10.093Z,11.90
2022-12-08T05:05:36.969Z,11.60
2022-12-08T05:08:03.881Z,10.73
2022-12-08T05:10:31.224Z,11.25
2022-12-08T05:12:59.887Z,10.80
2022-12-08T05:15:41.804Z,10.82
2022-12-08T05:18:08.634Z,13.93
2022-12-08T05:20:35.709Z,13.73
2022-12-08T05:23:02.486Z,12.98
2022-12-08T05:25:29.127Z,12.48
2022-12-08T05:28:17.722Z,11.48
2022-12-08T05:30:42.208Z,10.80
2022-12-08T05:33:09.427Z,12.00
2022-12-08T05:35:36.002Z,10.65
2022-12-08T05:38:02.646Z,12.68
2022-12-08T05:40:29.486Z,10.20
2022-12-08T05:42:56.079Z,10.85
2022-12-08T05:45:22.758Z,12.23
2022-12-08T05:47:49.546Z,11.10
2022-12-08T05:50:17.500Z,10.50
2022-12-08T05:52:44.500Z,10.88
2022-12-08T05:55:11.129Z,11.43
2022-12-08T05:57:37.739Z,11.57
2022-12-08T06:00:05.658Z,11.13
2022-12-08T06:02:32.700Z,11.20
2022-12-08T06:05:02.500Z,13.20
2022-12-08T06:07:29.163Z,11.88
2022-12-08T06:09:55.800Z,10.90
2022-12-08T06:12:22.819Z,10.77
2022-12-08T06:14:49.863Z,11.05
2022-12-08T06:17:16.498Z,11.38
2022-12-08T06:19:43.475Z,11.40
2022-12-08T06:22:10.154Z,11.85
2022-12-08T06:24:36.969Z,11.77
2022-12-08T06:27:03.659Z,11.07
2022-12-08T06:29:30.289Z,12.75
2022-12-08T06:31:57.108Z,11.27
2022-12-08T06:34:23.818Z,11.85
2022-12-08T06:36:50.395Z,13.20
2022-12-08T06:39:17.080Z,11.50
2022-12-08T06:42:02.489Z,11.80
2022-12-08T06:44:29.110Z,12.10
2022-12-08T06:46:55.917Z,13.18
2022-12-08T06:49:22.450Z,13.38
2022-12-08T06:51:49.055Z,11.43
2022-12-08T06:54:15.742Z,16.02
2022-12-08T06:56:43.667Z,14.18
2022-12-08T06:59:10.543Z,14.98
2022-12-08T07:01:37.392Z,14.02
2022-12-08T07:04:04.233Z,13.20
2022-12-08T07:06:31.039Z,15.27
2022-12-08T07:08:57.704Z,12.65
2022-12-08T07:11:24.349Z,12.23
2022-12-08T07:13:51.126Z,12.05
2022-12-08T07:16:17.852Z,11.43
2022-12-08T07:18:44.613Z,12.30
2022-12-08T07:21:14.821Z,11.68
2022-12-08T07:23:42.459Z,11.82
2022-12-08T07:26:11.771Z,11.32
2022-12-08T07:28:40.398Z,11.75
2022-12-08T07:31:08.495Z,11.52
2022-12-08T07:33:36.176Z,11.73
2022-12-08T07:36:09.203Z,12.75
2022-12-08T07:38:36.899Z,10.38
2022-12-08T07:41:03.801Z,12.30
2022-12-08T07:43:30.536Z,12.80
2022-12-08T07:45:57.175Z,12.00
2022-12-08T07:48:23.997Z,18.50
2022-12-08T07:50:50.987Z,14.07
2022-12-08T07:53:18.360Z,12.65
2022-12-08T07:55:45.341Z,11.45
2022-12-08T07:58:12.230Z,11.27
2022-12-08T08:00:38.942Z,11.98
2022-12-08T08:03:06.595Z,12.18
2022-12-08T08:05:33.205Z,12.13
2022-12-08T08:08:02.264Z,11.00
2022-12-08T08:10:28.977Z,12.55
2022-12-08T08:12:59.191Z,12.45
2022-12-08T08:15:26.388Z,13.45
2022-12-08T08:17:54.076Z,11.63
2022-12-08T08:20:21.230Z,11.07
2022-12-08T08:22:51.583Z,11.88
2022-12-08T08:25:20.255Z,11.55
2022-12-08T08:27:46.987Z,12.52
2022-12-08T08:30:19.914Z,11.80
2022-12-08T08:32:47.543Z,13.32
2022-12-08T08:35:14.203Z,13.15
2022-12-08T08:37:45.603Z,11.85
2022-12-08T08:40:15.255Z,10.88
2022-12-08T08:42:41.798Z,12.70
2022-12-08T08:45:08.677Z,11.80
2022-12-08T08:47:35.396Z,12.65
2022-12-08T08:50:02.397Z,11.32
2022-12-08T08:52:29.471Z,11.68
2022-12-08T08:54:56.056Z,12.13
2022-12-08T08:57:25.838Z,11.88
2022-12-08T08:59:53.601Z,12.65
2022-12-08T09:02:20.634Z,12.32
2022-12-08T09:04:47.726Z,17.95
2022-12-08T09:07:15.321Z,21.00
2022-12-08T09:09:42.051Z,24.92
2022-12-08T09:12:09.065Z,24.85
2022-12-08T09:14:36.050Z,15.75
2022-12-08T09:17:02.868Z,13.88
2022-12-08T09:19:29.431Z,13.50
2022-12-08T09:21:56.018Z,13.55
2022-12-08T09:24:23.278Z,13.32
2022-12-08T09:26:50.007Z,13.88
2022-12-08T09:29:17.673Z,12.88
2022-12-08T09:31:44.465Z,13.52
2022-12-08T09:34:12.386Z,14.10
2022-12-08T09:36:39.394Z,12.63
2022-12-08T09:39:08.852Z,12.63
2022-12-08T09:42:02.466Z,13.27
2022-12-08T09:44:31.982Z,13.20
2022-12-08T09:47:00.705Z,11.68
2022-12-08T09:49:39.522Z,12.95
2022-12-08T09:52:16.011Z,12.70
2022-12-08T09:54:42.693Z,13.05
2022-12-08T09:57:15.808Z,12.50
2022-12-08T09:59:47.917Z,12.90
2022-12-08T10:02:28.138Z,13.10
2022-12-08T10:04:56.480Z,13.57
2022-12-08T10:07:32.220Z,11.70
2022-12-08T10:10:05.346Z,12.52
2022-12-08T10:13:10.501Z,11.18
2022-12-08T10:15:59.473Z,11.90
2022-12-08T10:18:30.613Z,11.57
2022-12-08T10:21:15.685Z,12.60
2022-12-08T10:23:46.179Z,11.57
2022-12-08T10:26:16.153Z,11.63
2022-12-08T10:28:45.523Z,11.77
2022-12-08T10:31:23.536Z,10.55
2022-12-08T10:33:59.009Z,11.48
2022-12-08T10:36:56.217Z,11.48
2022-12-08T10:39:45.809Z,10.30
2022-12-08T10:42:19.953Z,9.88
2022-12-08T10:44:49.606Z,10.40
2022-12-08T10:47:16.800Z,10.57
2022-12-08T10:49:43.478Z,11.00
2022-12-08T10:52:23.392Z,11.30
2022-12-08T10:54:54.413Z,11.50
2022-12-08T10:57:23.774Z,10.45
2022-12-08T10:59:50.506Z,11.40
2022-12-08T11:02:20.497Z,9.45
2022-12-08T11:04:48.159Z,9.52
2022-12-08T11:07:22.990Z,10.75
2022-12-08T11:09:55.589Z,12.10
2022-12-08T11:12:23.008Z,10.00
2022-12-08T11:14:55.664Z,11.05
2022-12-08T11:17:22.212Z,10.07
2022-12-08T11:20:01.951Z,10.38
2022-12-08T11:22:39.907Z,10.38
2022-12-08T11:25:15.056Z,10.20
2022-12-08T11:27:47.741Z,9.70
2022-12-08T11:30:22.331Z,10.65
2022-12-08T11:32:51.616Z,9.60
2022-12-08T11:35:29.478Z,9.60
2022-12-08T11:38:20.152Z,10.07
2022-12-08T11:40:51.930Z,9.43
2022-12-08T11:43:27.247Z,9.40
2022-12-08T11:46:09.593Z,12.60
2022-12-08T11:48:41.632Z,9.73
2022-12-08T11:51:28.674Z,9.57
2022-12-08T11:54:22.593Z,8.98
2022-12-08T11:56:54.045Z,8.88
2022-12-08T11:59:20.631Z,9.45
2022-12-08T12:01:47.762Z,9.63
2022-12-08T12:04:40.698Z,8.88
2022-12-08T12:07:26.957Z,9.38
2022-12-08T12:10:18.234Z,9.65
2022-12-08T12:13:06.810Z,9.40
2022-12-08T12:15:55.527Z,8.95
2022-12-08T12:18:31.827Z,7.85
2022-12-08T12:21:22.452Z,8.52
2022-12-08T12:23:53.960Z,7.88
2022-12-08T12:26:26.305Z,8.63
2022-12-08T12:29:17.351Z,8.05
2022-12-08T12:31:53.178Z,7.45
2022-12-08T12:34:29.198Z,7.38
2022-12-08T12:37:10.715Z,7.10
2022-12-08T12:40:01.267Z,8.18
2022-12-08T12:42:43.867Z,7.95
2022-12-08T12:45:26.257Z,7.07
2022-12-08T12:47:57.071Z,7.15
2022-12-08T12:50:39.077Z,7.00
2022-12-08T12:53:26.453Z,7.40
2022-12-08T12:55:57.232Z,6.93
2022-12-08T12:58:30.056Z,9.23
2022-12-08T13:01:19.983Z,11.32
2022-12-08T13:03:50.471Z,9.23
2022-12-08T13:06:34.061Z,9.07
2022-12-08T13:09:01.144Z,8.88
2022-12-08T13:11:27.885Z,11.25
2022-12-08T13:14:01.717Z,8.57
2022-12-08T13:16:32.701Z,7.63
2022-12-08T13:19:03.837Z,8.85
2022-12-08T13:21:41.220Z,7.55
2022-12-08T13:24:13.491Z,7.57
2022-12-08T13:27:10.298Z,8.27
2022-12-08T13:29:40.791Z,9.95
2022-12-08T13:32:14.834Z,9.68
2022-12-08T13:35:00.528Z,8.80
2022-12-08T13:37:54.924Z,8.93
2022-12-08T13:40:25.842Z,7.00
2022-12-08T13:43:15.976Z,8.48
2022-12-08T13:46:57.576Z,8.05
2022-12-08T13:57:41.724Z,7.03
2022-12-08T14:00:27.455Z,7.50
2022-12-08T14:02:58.397Z,7.10
2022-12-08T14:05:55.114Z,7.05
2022-12-08T14:11:33.614Z,8.35
2022-12-08T14:14:07.639Z,6.68
2022-12-08T14:16:45.859Z,7.77
2022-12-08T14:19:24.626Z,7.70
2022-12-08T14:22:15.294Z,6.82
2022-12-08T14:24:46.516Z,5.75
2022-12-08T14:27:19.762Z,6.57
2022-12-08T14:29:54.342Z,6.90
2022-12-08T14:34:56.634Z,6.35
2022-12-08T14:37:26.440Z,6.22
2022-12-08T14:39:57.455Z,6.10
2022-12-08T14:42:26.160Z,6.97
2022-12-08T14:45:09.491Z,5.60
2022-12-08T14:47:36.103Z,5.97
2022-12-08T14:50:05.609Z,5.32
2022-12-08T14:52:32.425Z,5.07
2022-12-08T14:54:59.115Z,5.72
2022-12-08T14:57:33.701Z,5.07
2022-12-08T15:00:12.355Z,5.10
2022-12-08T15:02:46.894Z,5.55
2022-12-08T15:05:17.617Z,4.15
2022-12-08T15:08:00.095Z,4.68
2022-12-08T15:10:29.758Z,4.93
2022-12-08T15:13:25.260Z,4.70
2022-12-08T15:15:54.549Z,5.03
2022-12-08T15:18:35.354Z,5.63
2022-12-08T15:21:05.608Z,4.95
2022-12-08T15:23:40.027Z,5.95
2022-12-08T15:26:06.791Z,6.38
2022-12-08T15:28:33.924Z,7.25
2022-12-08T15:31:00.784Z,6.78
2022-12-08T15:33:27.854Z,5.88
2022-12-08T15:35:54.668Z,7.00
2022-12-08T15:38:30.073Z,6.30
2022-12-08T15:41:01.103Z,6.22
2022-12-08T15:43:30.113Z,5.57
2022-12-08T15:45:59.842Z,5.95
2022-12-08T15:48:30.140Z,5.65
2022-12-08T15:50:57.557Z,5.78
2022-12-08T15:53:24.154Z,5.55
2022-12-08T15:56:26.411Z,6.28
2022-12-08T15:58:55.589Z,5.30
2022-12-08T16:01:23.895Z,5.20
2022-12-08T16:07:19.862Z,5.15
2022-12-08T16:09:38.783Z,4.90
2022-12-08T16:12:51.880Z,5.03
2022-12-08T16:18:06.273Z,4.20
2022-12-08T16:20:58.878Z,4.60
2022-12-08T16:23:41.786Z,4.50
2022-12-08T16:26:44.288Z,3.50
2022-12-08T16:29:05.569Z,3.00
2022-12-08T16:31:32.845Z,3.22
2022-12-08T16:33:59.719Z,4.25
2022-12-08T16:36:26.412Z,3.70
2022-12-08T16:38:53.206Z,3.78
2022-12-08T16:41:38.329Z,3.92
2022-12-08T16:44:05.962Z,4.75
2022-12-08T16:46:33.121Z,4.47
2022-12-08T16:48:59.795Z,3.88
2022-12-08T16:51:27.550Z,3.80
2022-12-08T16:53:57.011Z,4.28
2022-12-08T16:56:30.363Z,3.45
2022-12-08T16:58:59.620Z,4.35
2022-12-08T17:01:26.337Z,4.38
2022-12-08T17:04:22.419Z,4.07
2022-12-08T17:06:40.319Z,3.85
2022-12-08T17:09:07.201Z,4.22
2022-12-08T17:11:43.983Z,3.60
2022-12-08T17:14:12.960Z,4.32
2022-12-08T17:16:47.340Z,3.67
2022-12-08T17:19:15.371Z,4.35
2022-12-08T17:21:44.413Z,4.32
2022-12-08T17:24:12.957Z,4.53
2022-12-08T17:26:42.504Z,4.43
2022-12-08T17:29:09.213Z,4.70
2022-12-08T17:31:35.965Z,9.18
2022-12-08T17:34:05.003Z,5.30
2022-12-08T17:36:32.100Z,4.57
2022-12-08T17:39:00.665Z,4.30
2022-12-08T17:41:28.375Z,4.90
2022-12-08T17:43:55.070Z,4.07
2022-12-08T17:46:22.459Z,5.18
2022-12-08T17:48:49.607Z,4.07
2022-12-08T17:51:16.321Z,4.70
2022-12-08T17:53:43.041Z,3.58
2022-12-08T17:56:19.820Z,4.90
2022-12-08T17:58:51.301Z,4.95
2022-12-08T18:01:19.461Z,4.15
2022-12-08T18:03:46.148Z,4.57
2022-12-08T18:06:13.114Z,4.60
2022-12-08T18:08:40.579Z,4.30
2022-12-08T18:11:16.345Z,4.80
2022-12-08T18:13:44.010Z,4.07
2022-12-08T18:16:10.780Z,4.63
2022-12-08T18:18:38.566Z,5.32
2022-12-08T18:21:05.495Z,5.07
2022-12-08T18:23:32.263Z,4.45
2022-12-08T18:25:59.068Z,4.80
2022-12-08T18:28:25.766Z,4.97
2022-12-08T18:30:52.459Z,4.53
2022-12-08T18:33:19.148Z,4.85
2022-12-08T18:35:45.893Z,6.45
2022-12-08T18:38:12.526Z,5.47
2022-12-08T18:40:39.451Z,4.93
2022-12-08T18:43:06.077Z,5.10
2022-12-08T18:45:32.869Z,4.97
2022-12-08T18:48:01.123Z,10.00
2022-12-08T18:50:27.691Z,4.78
2022-12-08T18:52:54.723Z,5.38
2022-12-08T18:55:21.780Z,4.95
2022-12-08T18:57:48.509Z,4.85
2022-12-08T19:00:18.478Z,4.03
2022-12-08T19:02:45.497Z,4.70
2022-12-08T19:05:13.787Z,5.18
2022-12-08T19:07:43.440Z,4.47
2022-12-08T19:10:10.985Z,4.68
2022-12-08T19:12:37.776Z,4.68
2022-12-08T19:15:05.569Z,4.95
2022-12-08T19:17:32.750Z,4.78
2022-12-08T19:19:59.639Z,4.13
2022-12-08T19:22:26.283Z,4.93
2022-12-08T19:24:52.904Z,4.95
2022-12-08T19:27:19.908Z,4.82
2022-12-08T19:29:46.577Z,5.35
2022-12-08T19:32:13.745Z,5.07
2022-12-08T19:34:40.454Z,5.43
2022-12-08T19:37:08.882Z,5.43
2022-12-08T19:39:54.494Z,5.13
2022-12-08T19:42:43.084Z,6.38
2022-12-08T19:45:17.299Z,5.05
2022-12-08T19:47:45.611Z,5.13
2022-12-08T19:50:34.369Z,5.90
2022-12-08T19:53:01.556Z,6.07
2022-12-08T19:55:28.600Z,5.50
2022-12-08T19:57:56.866Z,5.00
2022-12-08T20:00:28.809Z,5.00
2022-12-08T20:02:55.725Z,5.40
2022-12-08T20:05:22.587Z,5.35
2022-12-08T20:07:49.653Z,4.68
2022-12-08T20:10:22.700Z,4.70
2022-12-08T20:12:51.423Z,4.75
2022-12-08T20:15:19.606Z,3.78
2022-12-08T20:17:46.174Z,4.75
2022-12-08T20:20:14.314Z,5.10
2022-12-08T20:22:41.662Z,4.68
2022-12-08T20:25:12.795Z,4.30
2022-12-08T20:27:40.374Z,4.32
2022-12-08T20:30:13.367Z,4.72
2022-12-08T20:32:43.517Z,4.40
2022-12-08T20:35:10.078Z,4.47
2022-12-08T20:37:39.580Z,4.00
2022-12-08T20:40:16.065Z,4.05
2022-12-08T20:42:45.666Z,4.30
2022-12-08T20:45:12.433Z,3.63
2022-12-08T20:47:39.199Z,3.78
2022-12-08T20:50:10.160Z,4.40
2022-12-08T20:52:43.350Z,4.32
2022-12-08T20:55:10.873Z,4.97
2022-12-08T20:57:38.018Z,5.45
2022-12-08T21:00:08.809Z,5.15
2022-12-08T21:02:39.548Z,5.35
2022-12-08T21:05:10.806Z,5.80
2022-12-08T21:07:37.700Z,5.45
2022-12-08T21:10:05.269Z,5.88
2022-12-08T21:12:32.824Z,5.45
2022-12-08T21:14:59.902Z,5.70
2022-12-08T21:17:26.777Z,5.82
2022-12-08T21:19:53.699Z,5.90
2022-12-08T21:22:21.426Z,5.50
2022-12-08T21:24:49.130Z,5.40
2022-12-08T21:27:15.890Z,5.03
2022-12-08T21:29:42.606Z,5.45
2022-12-08T21:32:10.760Z,5.22
2022-12-08T21:34:37.983Z,5.63
2022-12-08T21:37:04.695Z,4.25
2022-12-08T21:39:31.472Z,4.10
2022-12-08T21:42:16.874Z,3.78
2022-12-08T21:44:43.903Z,5.20
2022-12-08T21:47:10.838Z,4.03
2022-12-08T21:49:37.586Z,3.97
2022-12-08T21:52:04.349Z,4.40
2022-12-08T21:54:31.594Z,4.68
2022-12-08T21:56:58.415Z,4.28
2022-12-08T21:59:25.124Z,4.80
2022-12-08T22:01:51.976Z,4.82
2022-12-08T22:04:21.819Z,5.13
2022-12-08T22:06:49.395Z,4.68
2022-12-08T22:09:16.162Z,4.68
2022-12-08T22:11:44.434Z,4.95
2022-12-08T22:14:14.856Z,4.90
2022-12-08T22:16:42.410Z,4.32
2022-12-08T22:19:11.708Z,4.68
2022-12-08T22:21:38.830Z,4.85
2022-12-08T22:24:07.101Z,4.70
2022-12-08T22:26:34.404Z,5.22
2022-12-08T22:29:01.352Z,4.47
2022-12-08T22:31:28.488Z,5.68
2022-12-08T22:33:55.657Z,5.32
2022-12-08T22:36:24.902Z,5.95
2022-12-08T22:38:52.111Z,5.68
2022-12-08T22:41:19.275Z,5.60
2022-12-08T22:43:46.943Z,6.03
2022-12-08T22:46:22.721Z,4.90
2022-12-08T22:48:50.983Z,5.68
2022-12-08T22:51:18.810Z,5.82
2022-12-08T22:53:46.719Z,4.82
2022-12-08T22:56:14.667Z,6.47
2022-12-08T22:58:41.938Z,4.90
2022-12-08T23:01:09.177Z,5.43
2022-12-08T23:03:36.191Z,4.63
2022-12-08T23:06:03.378Z,5.10
2022-12-08T23:08:30.320Z,4.93
2022-12-08T23:10:57.986Z,5.05
2022-12-08T23:13:24.798Z,4.70
2022-12-08T23:15:51.813Z,4.95
2022-12-08T23:18:19.332Z,4.93
2022-12-08T23:20:47.611Z,6.28
2022-12-08T23:23:15.581Z,5.32
2022-12-08T23:25:43.220Z,4.47
2022-12-08T23:28:11.401Z,5.43
2022-12-08T23:30:42.183Z,5.40
2022-12-08T23:33:09.258Z,4.55
2022-12-08T23:35:36.316Z,4.90
2022-12-08T23:38:03.637Z,5.05
2022-12-08T23:40:30.617Z,6.05
2022-12-08T23:42:57.277Z,5.28
2022-12-08T23:45:25.793Z,5.38
2022-12-08T23:47:55.722Z,5.07
2022-12-08T23:50:22.980Z,5.05
2022-12-08T23:52:51.584Z,5.53
2022-12-08T23:55:18.382Z,4.95
2022-12-08T23:57:45.512Z,5.38
